Time;durP1;ratioP1;P1;durP2;ratioP2;P2;SDS_P1;SDS_P2;PMS_P1;PMS_P2;Temp;Humidity;BMP_temperature;BMP_pressure;BME280_temperature;BME280_humidity;BME280_pressure;Samples;Min_cycle;Max_cycle;Signal;HPM_P1;HPM_P2
2022/06/10 00:00:47;;;;;;;1.27;0.47;;;17.30;48.70;;;;;;2321789;54;22216;-73
2022/06/10 00:03:17;;;;;;;3.67;0.60;;;17.30;48.80;;;;;;2342629;55;20970;-72
2022/06/10 00:05:44;;;;;;;2.42;0.70;;;17.30;48.90;;;;;;2342074;55;21023;-72
2022/06/10 00:08:12;;;;;;;1.08;0.40;;;17.20;48.90;;;;;;2571266;53;20988;-73
2022/06/10 00:10:39;;;;;;;2.67;0.57;;;17.20;48.90;;;;;;2342153;55;21397;-72
2022/06/10 00:13:06;;;;;;;0.98;0.40;;;17.10;48.90;;;;;;2332720;54;21005;-72
2022/06/10 00:15:32;;;;;;;2.37;0.57;;;17.10;49.00;;;;;;2332134;54;21540;-73
2022/06/10 00:17:59;;;;;;;1.67;0.57;;;17.00;49.00;;;;;;2340320;55;21099;-72
2022/06/10 00:20:26;;;;;;;2.42;0.37;;;17.10;49.30;;;;;;2567405;53;20955;-72
2022/06/10 00:22:56;;;;;;;2.58;0.60;;;17.00;49.80;;;;;;2342504;55;20968;-72
2022/06/10 00:25:22;;;;;;;3.53;0.80;;;16.90;49.30;;;;;;2389899;53;21047;-73
2022/06/10 00:27:48;;;;;;;3.20;0.70;;;16.90;49.30;;;;;;2341713;55;21015;-72
2022/06/10 00:30:16;;;;;;;2.95;0.70;;;16.90;49.50;;;;;;2341940;55;21047;-72
2022/06/10 00:32:42;;;;;;;2.20;0.60;;;16.80;49.70;;;;;;2343304;55;21031;-73
2022/06/10 00:35:09;;;;;;;1.87;0.52;;;16.80;49.80;;;;;;2378705;53;21055;-72
2022/06/10 00:37:35;;;;;;;2.10;0.68;;;16.80;49.90;;;;;;2563122;53;20943;-72
2022/06/10 00:40:02;;;;;;;1.27;0.50;;;16.80;49.90;;;;;;2340784;55;21019;-73
2022/06/10 00:42:28;;;;;;;1.75;0.60;;;16.70;49.90;;;;;;2340881;55;21570;-73
2022/06/10 00:44:55;;;;;;;2.60;0.60;;;16.80;50.00;;;;;;2407278;53;20967;-72
2022/06/10 00:47:43;;;;;;;3.10;0.60;;;16.70;49.90;;;;;;2323107;54;20987;-73
2022/06/10 00:50:42;;;;;;;1.85;0.52;;;16.70;50.20;;;;;;2535808;53;21027;-73
2022/06/10 00:53:10;;;;;;;2.28;0.50;;;16.70;50.30;;;;;;2340340;55;21107;-72
2022/06/10 00:55:37;;;;;;;1.30;0.50;;;16.70;50.00;;;;;;2327384;54;20967;-73
2022/06/10 00:58:16;;;;;;;3.22;0.52;;;16.60;49.90;;;;;;2324494;54;20940;-72
2022/06/10 01:00:45;;;;;;;2.55;0.62;;;16.60;50.10;;;;;;2581547;53;20987;-73
2022/06/10 01:03:11;;;;;;;1.50;0.50;;;16.60;50.10;;;;;;2326646;54;21614;-73
2022/06/10 01:05:38;;;;;;;2.50;0.50;;;16.60;50.10;;;;;;2512784;53;21015;-72
2022/06/10 01:08:07;;;;;;;1.80;0.60;;;16.50;50.00;;;;;;2343125;55;20963;-72
2022/06/10 01:10:41;;;;;;;1.70;0.55;;;16.50;50.10;;;;;;2328041;54;21028;-73
2022/06/10 01:15:13;;;;;;;2.28;0.60;;;16.50;50.20;;;;;;2321638;53;20967;-73
2022/06/10 01:18:08;;;;;;;3.55;0.70;;;16.50;50.50;;;;;;2343252;55;20983;-72
2022/06/10 01:26:05;;;;;;;2.22;0.50;;;16.40;50.20;;;;;;2342505;54;21725;-72
2022/06/10 01:31:38;;;;;;;0.98;0.40;;;16.40;50.10;;;;;;2342275;55;21961;-72
2022/06/10 01:34:28;;;;;;;0.95;0.30;;;16.30;50.10;;;;;;2342710;55;20984;-72
2022/06/10 01:37:08;;;;;;;4.35;0.60;;;16.20;50.00;;;;;;2336968;54;21918;-73
2022/06/10 01:40:41;;;;;;;0.98;0.30;;;16.20;50.10;;;;;;2329744;54;21484;-72
2022/06/10 01:43:16;;;;;;;0.98;0.40;;;16.10;50.20;;;;;;2343646;55;20947;-73
2022/06/10 01:45:52;;;;;;;3.25;0.50;;;16.10;50.10;;;;;;2343905;55;21042;-72
2022/06/10 01:48:41;;;;;;;1.42;0.52;;;16.00;50.20;;;;;;2342129;54;21385;-72
2022/06/10 01:51:20;;;;;;;1.42;0.50;;;16.00;50.40;;;;;;2343222;55;20932;-72
2022/06/10 01:53:58;;;;;;;2.78;0.62;;;16.00;50.40;;;;;;2327404;54;21637;-72
2022/06/10 01:56:41;;;;;;;1.50;0.50;;;16.00;50.50;;;;;;2340170;54;21007;-73
2022/06/10 01:59:10;;;;;;;;;;;15.90;50.80;;;;;;2346284;55;20931;-72
2022/06/10 02:01:39;;;;;;;3.65;0.40;;;15.90;50.70;;;;;;2346317;53;20079;-72
2022/06/10 02:04:09;;;;;;;1.75;0.50;;;15.90;50.50;;;;;;2342832;55;20964;-72
2022/06/10 02:07:05;;;;;;;2.95;0.70;;;15.90;50.70;;;;;;2342490;55;21377;-72
2022/06/10 02:09:36;;;;;;;2.50;0.50;;;15.90;50.90;;;;;;2588560;53;20952;-72
2022/06/10 02:12:09;;;;;;;1.15;0.45;;;15.90;50.90;;;;;;2585675;53;21477;-72
2022/06/10 02:14:44;;;;;;;2.50;0.60;;;15.80;50.90;;;;;;2304549;55;20963;-73
2022/06/10 02:17:10;;;;;;;1.85;0.52;;;15.80;51.00;;;;;;2342087;54;20991;-73
2022/06/10 02:19:47;;;;;;;2.80;0.93;;;15.80;51.00;;;;;;2334525;54;21437;-73
2022/06/10 02:22:16;;;;;;;1.75;0.50;;;15.80;51.20;;;;;;2387463;53;20976;-72
2022/06/10 02:24:45;;;;;;;3.00;0.60;;;15.80;51.20;;;;;;2587301;53;20995;-73
2022/06/10 02:27:14;;;;;;;1.02;0.50;;;15.80;51.30;;;;;;2323752;54;21074;-73
2022/06/10 02:30:00;;;;;;;1.67;0.60;;;15.80;51.30;;;;;;2338652;54;22842;-74
2022/06/10 02:32:27;;;;;;;1.58;0.52;;;15.80;51.40;;;;;;2342509;54;20943;-73
2022/06/10 02:34:54;;;;;;;2.75;0.70;;;15.80;51.40;;;;;;2588609;53;21452;-72
2022/06/10 02:37:52;;;;;;;2.87;0.60;;;15.80;51.50;;;;;;2554473;53;21094;-73
2022/06/10 02:41:42;;;;;;;1.05;0.50;;;15.80;51.90;;;;;;2342628;55;21034;-73
2022/06/10 02:45:08;;;;;;;1.20;0.40;;;15.80;51.90;;;;;;2588671;53;20983;-72
2022/06/10 02:47:45;;;;;;;1.50;0.47;;;15.90;51.90;;;;;;2429228;53;21437;-73
2022/06/10 02:50:13;;;;;;;2.45;0.70;;;15.80;51.40;;;;;;2342483;55;21528;-73
2022/06/10 02:52:39;;;;;;;1.98;0.60;;;15.80;51.30;;;;;;2342189;55;21678;-73
2022/06/10 02:55:07;;;;;;;2.25;0.60;;;15.80;51.30;;;;;;2340019;55;21091;-73
2022/06/10 03:04:23;;;;;;;3.20;0.65;;;15.70;51.30;;;;;;2519638;53;20963;-73
2022/06/10 03:08:30;;;;;;;1.77;0.45;;;15.70;51.70;;;;;;2319245;53;21627;-72
2022/06/10 03:11:34;;;;;;;2.33;0.50;;;15.70;51.40;;;;;;2340438;54;20943;-73
2022/06/10 03:17:42;;;;;;;1.48;0.60;;;15.60;51.40;;;;;;2505577;53;21071;-72
2022/06/10 03:21:50;;;;;;;1.60;0.50;;;15.60;51.40;;;;;;2323234;54;20931;-71
2022/06/10 03:24:59;;;;;;;2.78;0.60;;;15.50;51.50;;;;;;2343137;55;20963;-73
2022/06/10 03:27:45;;;;;;;1.10;0.50;;;15.40;51.60;;;;;;2342594;55;21440;-73
2022/06/10 03:30:14;;;;;;;1.67;0.50;;;15.40;51.40;;;;;;2343503;55;20964;-72
2022/06/10 03:32:43;;;;;;;2.08;0.80;;;15.30;51.20;;;;;;2342563;55;21454;-73
2022/06/10 03:35:29;;;;;;;1.42;0.55;;;15.30;51.40;;;;;;2323451;55;20948;-73
2022/06/10 03:37:56;;;;;;;2.05;0.60;;;15.20;51.50;;;;;;2342138;54;21019;-72
2022/06/10 03:40:27;;;;;;;0.85;0.52;;;15.20;51.50;;;;;;2588983;53;20928;-73
2022/06/10 03:42:55;;;;;;;0.98;0.40;;;15.20;51.60;;;;;;2339283;54;21011;-72
2022/06/10 03:45:43;;;;;;;2.00;0.80;;;15.20;51.60;;;;;;2327647;54;20939;-72
2022/06/10 03:48:14;;;;;;;3.10;0.70;;;15.10;51.80;;;;;;2343862;55;22146;-73
2022/06/10 03:50:41;;;;;;;1.12;0.40;;;15.10;51.60;;;;;;2472539;53;20976;-73
2022/06/10 03:53:09;;;;;;;1.80;0.60;;;15.10;51.60;;;;;;2342314;55;20975;-72
2022/06/10 03:55:37;;;;;;;2.70;0.50;;;15.10;51.70;;;;;;2323029;54;21949;-73
2022/06/10 03:58:04;;;;;;;1.35;0.55;;;15.00;51.60;;;;;;2340984;54;20948;-71
2022/06/10 04:00:30;;;;;;;1.62;0.60;;;15.00;51.60;;;;;;2335200;54;20975;-72
2022/06/10 04:02:58;;;;;;;3.40;0.60;;;15.00;51.70;;;;;;2326975;54;21362;-72
2022/06/10 04:05:24;;;;;;;2.17;0.60;;;15.00;51.80;;;;;;2341927;54;20927;-73
2022/06/10 04:07:50;;;;;;;2.37;0.73;;;15.00;51.80;;;;;;2344226;53;20971;-73
2022/06/10 04:10:19;;;;;;;1.98;0.68;;;15.00;51.80;;;;;;2297010;54;1369325;-72
2022/06/10 04:12:45;;;;;;;1.33;0.45;;;15.00;51.90;;;;;;2359166;53;22186;-73
2022/06/10 04:15:14;;;;;;;1.25;0.55;;;14.90;51.90;;;;;;2323278;54;20943;-72
2022/06/10 04:17:44;;;;;;;1.95;0.60;;;14.90;52.00;;;;;;2340899;54;21043;-72
2022/06/10 04:20:19;;;;;;;0.88;0.45;;;14.90;52.10;;;;;;2342845;55;21050;-71
2022/06/10 04:22:48;;;;;;;1.05;0.50;;;14.90;52.10;;;;;;2351732;53;20975;-72
2022/06/10 04:25:14;;;;;;;2.35;0.60;;;14.90;52.10;;;;;;2342269;55;20951;-72
2022/06/10 04:27:40;;;;;;;4.28;1.05;;;14.90;52.10;;;;;;2342299;55;21070;-73
2022/06/10 04:30:11;;;;;;;1.95;0.60;;;14.90;52.20;;;;;;2342422;55;20959;-71
2022/06/10 04:32:37;;;;;;;2.70;0.98;;;14.90;52.30;;;;;;2341332;55;21440;-73
2022/06/10 04:35:04;;;;;;;1.90;0.60;;;14.90;52.40;;;;;;2342467;55;21010;-72
2022/06/10 04:37:30;;;;;;;2.62;0.70;;;14.90;52.60;;;;;;2341912;55;21062;-73
2022/06/10 04:39:56;;;;;;;1.75;0.62;;;14.90;52.70;;;;;;2333135;54;20951;-72
2022/06/10 04:42:23;;;;;;;2.67;0.80;;;14.90;52.70;;;;;;2331522;54;21706;-72
2022/06/10 04:44:49;;;;;;;1.58;0.60;;;14.90;52.80;;;;;;2335517;54;21692;-72
2022/06/10 04:47:15;;;;;;;1.67;0.70;;;14.90;52.90;;;;;;2327195;54;21507;-73
2022/06/10 04:49:42;;;;;;;1.45;0.50;;;14.90;52.90;;;;;;2323708;54;20959;-73
2022/06/10 04:52:08;;;;;;;1.55;0.52;;;14.90;53.00;;;;;;2584960;53;20940;-72
2022/06/10 04:54:34;;;;;;;2.25;0.60;;;14.90;53.00;;;;;;2341453;55;20923;-72
2022/06/10 04:57:01;;;;;;;1.42;0.55;;;15.00;53.20;;;;;;2342761;55;21058;-73
2022/06/10 04:59:27;;;;;;;2.20;0.70;;;15.00;53.30;;;;;;2328485;54;21615;-73
2022/06/10 05:01:53;;;;;;;1.75;0.60;;;15.00;53.40;;;;;;2322522;54;21038;-74
2022/06/10 05:04:19;;;;;;;1.15;0.50;;;15.00;53.40;;;;;;2348054;53;21868;-72
2022/06/10 05:06:47;;;;;;;2.62;0.70;;;15.00;53.50;;;;;;2345158;53;21454;-73
2022/06/10 05:09:16;;;;;;;3.37;0.95;;;15.00;53.60;;;;;;2320647;54;21103;-71
2022/06/10 05:11:42;;;;;;;2.58;0.80;;;15.10;53.70;;;;;;2326394;54;20970;-72
2022/06/10 05:14:10;;;;;;;2.37;0.90;;;15.20;53.90;;;;;;2317728;54;21031;-72
2022/06/10 05:16:37;;;;;;;4.43;0.80;;;15.20;54.00;;;;;;2322543;54;21466;-72
2022/06/10 05:19:03;;;;;;;2.05;0.62;;;15.20;54.00;;;;;;2341215;54;21006;-73
2022/06/10 05:21:29;;;;;;;2.05;0.70;;;15.30;54.20;;;;;;2322652;54;21082;-72
2022/06/10 05:23:56;;;;;;;3.45;0.77;;;15.30;54.20;;;;;;2578452;53;21819;-72
2022/06/10 05:26:22;;;;;;;2.40;0.95;;;15.40;54.30;;;;;;2328577;54;20982;-73
2022/06/10 05:28:51;;;;;;;3.00;0.98;;;15.40;54.40;;;;;;2342353;55;20947;-72
2022/06/10 05:31:18;;;;;;;2.30;0.70;;;15.50;54.60;;;;;;2342581;55;20959;-73
2022/06/10 05:36:29;;;;;;;2.12;0.70;;;15.60;54.60;;;;;;2342464;55;20939;-73
2022/06/10 05:38:55;;;;;;;1.85;0.65;;;15.70;54.70;;;;;;2342737;55;21031;-74
2022/06/10 05:44:06;;;;;;;1.50;0.80;;;15.80;54.90;;;;;;2342909;55;21003;-72
2022/06/10 05:46:33;;;;;;;1.83;0.70;;;15.90;55.00;;;;;;2342541;55;20959;-73
2022/06/10 05:48:59;;;;;;;2.30;0.88;;;15.90;55.00;;;;;;2342420;55;20936;-74
2022/06/10 05:51:26;;;;;;;2.87;0.73;;;16.00;55.20;;;;;;2342296;54;20936;-73
2022/06/10 05:53:52;;;;;;;1.27;0.52;;;16.10;55.20;;;;;;2331564;54;20963;-72
2022/06/10 05:56:18;;;;;;;2.10;0.62;;;16.10;55.20;;;;;;2331844;54;21015;-75
2022/06/10 05:58:45;;;;;;;3.10;1.00;;;16.20;55.30;;;;;;2342466;55;20931;-74
2022/06/10 06:01:11;;;;;;;1.52;0.73;;;16.30;55.40;;;;;;2342443;55;20999;-73
2022/06/10 06:03:37;;;;;;;2.95;0.85;;;16.30;55.40;;;;;;2342174;55;21066;-75
2022/06/10 06:06:04;;;;;;;3.92;1.02;;;16.40;55.40;;;;;;2342317;55;21401;-73
2022/06/10 06:08:46;;;;;;;3.60;0.82;;;16.50;55.50;;;;;;2354115;53;20991;-73
2022/06/10 06:11:12;;;;;;;2.05;0.70;;;16.50;55.90;;;;;;2335933;54;20995;-72
2022/06/10 06:13:39;;;;;;;4.37;0.95;;;16.60;55.60;;;;;;2342302;55;20979;-74
2022/06/10 06:16:06;;;;;;;2.42;0.90;;;16.70;55.70;;;;;;2324022;54;20982;-73
2022/06/10 06:18:32;;;;;;;2.08;0.88;;;16.80;55.80;;;;;;2339303;54;20935;-73
2022/06/10 06:21:07;;;;;;;2.58;0.85;;;16.80;55.70;;;;;;2346998;53;21534;-73
2022/06/10 06:23:34;;;;;;;2.35;0.70;;;16.90;56.00;;;;;;2337070;54;21389;-74
2022/06/10 06:26:00;;;;;;;2.22;0.80;;;17.10;55.90;;;;;;2342351;55;20947;-75
2022/06/10 06:28:39;;;;;;;3.00;0.70;;;17.10;55.80;;;;;;2342539;55;21472;-73
2022/06/10 06:31:05;;;;;;;2.62;0.90;;;17.20;56.80;;;;;;2342669;55;21008;-76
2022/06/10 06:33:33;;;;;;;2.70;1.00;;;17.30;55.90;;;;;;2587999;53;20966;-72
2022/06/10 06:35:59;;;;;;;2.92;0.90;;;17.40;55.90;;;;;;2342272;55;20958;-73
2022/06/10 06:38:26;;;;;;;3.33;0.98;;;17.50;55.90;;;;;;2420606;53;21738;-76
2022/06/10 06:40:55;;;;;;;2.83;0.77;;;17.50;55.70;;;;;;2381422;53;20995;-74
2022/06/10 06:43:21;;;;;;;4.72;1.25;;;17.70;55.70;;;;;;2342883;55;21663;-75
2022/06/10 06:45:50;;;;;;;3.62;0.90;;;17.70;55.70;;;;;;2342461;55;20979;-73
2022/06/10 06:48:16;;;;;;;4.93;1.08;;;17.80;55.80;;;;;;2335786;54;21003;-74
2022/06/10 06:50:45;;;;;;;3.50;0.88;;;17.90;55.80;;;;;;2428064;53;21816;-75
2022/06/10 06:53:21;;;;;;;3.30;1.08;;;18.00;55.90;;;;;;2343362;55;21007;-73
2022/06/10 06:55:48;;;;;;;2.97;0.77;;;18.20;55.80;;;;;;2342385;53;21025;-73
2022/06/10 06:58:15;;;;;;;2.97;1.00;;;18.20;55.60;;;;;;2319896;54;20998;-73
2022/06/10 07:00:44;;;;;;;2.42;0.90;;;18.30;55.60;;;;;;2340094;54;20940;-73
2022/06/10 07:03:10;;;;;;;3.97;1.08;;;18.40;55.50;;;;;;2342395;55;20931;-74
2022/06/10 07:05:38;;;;;;;4.28;1.23;;;18.50;55.60;;;;;;2342432;55;20995;-71
2022/06/10 07:08:05;;;;;;;1.80;0.70;;;18.60;55.60;;;;;;2342293;55;20979;-73
2022/06/10 07:10:32;;;;;;;2.42;0.75;;;18.70;55.60;;;;;;2342773;55;20955;-73
2022/06/10 07:12:58;;;;;;;2.62;0.80;;;18.80;55.50;;;;;;2342149;55;20948;-73
2022/06/10 07:15:25;;;;;;;2.20;0.90;;;18.90;55.40;;;;;;2342235;55;20967;-74
2022/06/10 07:17:51;;;;;;;1.87;0.70;;;19.00;55.30;;;;;;2342440;55;21025;-73
2022/06/10 07:20:26;;;;;;;2.47;0.90;;;19.10;55.30;;;;;;2338017;54;21583;-74
2022/06/10 07:22:52;;;;;;;2.00;0.70;;;19.20;55.10;;;;;;2487379;53;20960;-74
2022/06/10 07:25:18;;;;;;;3.83;0.90;;;19.30;55.10;;;;;;2413483;53;20964;-73
2022/06/10 07:27:45;;;;;;;3.50;0.80;;;19.40;55.10;;;;;;2325533;54;21841;-74
2022/06/10 07:30:13;;;;;;;2.85;0.73;;;19.40;55.10;;;;;;2332361;53;21036;-73
2022/06/10 07:32:40;;;;;;;2.17;0.60;;;19.50;55.00;;;;;;2342114;55;20955;-74
2022/06/10 07:35:06;;;;;;;3.37;0.80;;;19.60;54.90;;;;;;2340328;55;20940;-74
2022/06/10 07:37:33;;;;;;;1.52;0.52;;;19.70;54.80;;;;;;2318187;54;20950;-74
2022/06/10 07:39:59;;;;;;;3.42;0.82;;;19.80;54.80;;;;;;2341082;54;21939;-74
2022/06/10 07:42:25;;;;;;;3.03;0.80;;;19.90;54.80;;;;;;2321716;54;20999;-77
2022/06/10 07:44:52;;;;;;;3.45;0.80;;;20.00;54.80;;;;;;2337353;54;20991;-74
2022/06/10 07:47:18;;;;;;;3.97;0.80;;;20.00;54.70;;;;;;2342066;54;21011;-74
2022/06/10 07:49:44;;;;;;;2.92;0.70;;;20.10;54.60;;;;;;2338901;54;20968;-74
2022/06/10 07:52:10;;;;;;;2.28;0.73;;;20.20;54.60;;;;;;2325525;54;20939;-76
2022/06/10 07:54:37;;;;;;;3.25;0.80;;;20.30;54.60;;;;;;2495084;53;20939;-75
2022/06/10 07:57:04;;;;;;;2.62;0.73;;;20.40;54.60;;;;;;2342272;55;20967;-74
2022/06/10 07:59:30;;;;;;;2.85;1.05;;;20.50;54.50;;;;;;2341809;55;20963;-74
2022/06/10 08:01:57;;;;;;;3.40;0.85;;;20.60;54.60;;;;;;2342457;55;21228;-73
2022/06/10 08:04:23;;;;;;;2.75;0.88;;;20.70;54.60;;;;;;2342187;55;20995;-73
2022/06/10 08:06:50;;;;;;;3.53;0.80;;;20.80;54.50;;;;;;2388244;53;21882;-75
2022/06/10 08:09:20;;;;;;;3.47;0.95;;;20.90;54.40;;;;;;2347247;53;20979;-74
2022/06/10 08:11:50;;;;;;;2.83;1.00;;;21.00;54.40;;;;;;2341613;55;20939;-74
2022/06/10 08:14:16;;;;;;;3.60;1.10;;;21.10;54.30;;;;;;2341706;55;21580;-73
2022/06/10 08:16:43;;;;;;;1.70;0.68;;;21.10;54.20;;;;;;2342169;55;21002;-73
2022/06/10 08:19:09;;;;;;;3.08;1.00;;;21.20;54.10;;;;;;2446664;53;21477;-74
2022/06/10 08:24:20;;;;;;;2.20;0.77;;;21.40;54.00;;;;;;2341818;55;20948;-75
2022/06/10 08:26:47;;;;;;;2.67;1.15;;;21.40;53.90;;;;;;2341927;55;21449;-73
2022/06/10 08:29:16;;;;;;;3.20;0.93;;;21.50;53.90;;;;;;2338578;54;21047;-73
2022/06/10 08:31:42;;;;;;;4.03;1.10;;;21.60;53.90;;;;;;2317194;54;21553;-74
2022/06/10 08:34:09;;;;;;;3.15;0.88;;;21.70;53.80;;;;;;2329701;54;20928;-74
2022/06/10 08:36:37;;;;;;;3.25;1.10;;;21.70;53.70;;;;;;2342002;55;21438;-73
2022/06/10 08:39:03;;;;;;;3.37;1.10;;;21.80;53.90;;;;;;2342389;55;20971;-73
2022/06/10 08:42:02;;;;;;;3.90;1.00;;;21.90;53.80;;;;;;2339754;55;21037;-74
2022/06/10 08:44:57;;;;;;;2.53;0.90;;;22.00;53.50;;;;;;2341691;55;21750;-73
2022/06/10 08:47:46;;;;;;;3.35;1.00;;;22.10;53.20;;;;;;2340382;53;21146;-76
2022/06/10 08:50:45;;;;;;;3.30;0.98;;;22.20;53.10;;;;;;2549886;53;21403;-74
2022/06/10 08:55:11;;;;;;;2.45;0.90;;;22.30;53.30;;;;;;2429156;53;21364;-72
2022/06/10 08:57:45;;;;;;;3.67;0.88;;;22.30;52.90;;;;;;2341976;55;21300;-74
2022/06/10 09:00:48;;;;;;;2.65;0.80;;;22.50;53.00;;;;;;2457818;53;21980;-73
2022/06/10 09:03:29;;;;;;;3.40;0.88;;;22.50;52.60;;;;;;2342408;55;20912;-75
2022/06/10 09:05:58;;;;;;;3.05;0.82;;;22.60;52.20;;;;;;2385771;53;20931;-74
2022/06/10 09:08:31;;;;;;;3.03;1.00;;;22.70;52.40;;;;;;2342105;55;20951;-74
2022/06/10 09:11:21;;;;;;;2.22;0.80;;;22.70;52.30;;;;;;2342496;55;21019;-73
2022/06/10 09:13:53;;;;;;;2.97;0.80;;;22.80;51.80;;;;;;2341873;55;20916;-74
2022/06/10 09:16:35;;;;;;;3.20;0.80;;;22.80;52.00;;;;;;2491423;53;20947;-74
2022/06/10 09:20:46;;;;;;;1.83;0.82;;;22.90;51.80;;;;;;2342048;55;21014;-73
2022/06/10 09:23:19;;;;;;;2.22;0.60;;;22.90;51.60;;;;;;2342377;55;21050;-74
2022/06/10 09:25:47;;;;;;;2.30;0.80;;;23.10;51.60;;;;;;2341996;55;21027;-76
2022/06/10 09:28:13;;;;;;;2.83;0.82;;;23.10;51.40;;;;;;2335392;54;21040;-74
2022/06/10 09:30:56;;;;;;;3.62;0.85;;;23.10;51.10;;;;;;2328928;54;21035;-74
2022/06/10 09:33:44;;;;;;;4.22;1.12;;;23.20;50.90;;;;;;2342171;55;20995;-74
2022/06/10 09:36:42;;;;;;;4.78;1.20;;;23.30;50.50;;;;;;2342250;55;20936;-74
2022/06/10 09:42:40;;;;;;;3.70;0.70;;;23.40;50.60;;;;;;2340263;54;20952;-74
2022/06/10 09:49:43;;;;;;;2.83;0.77;;;23.50;50.30;;;;;;2342224;55;20931;-74
2022/06/10 09:52:21;;;;;;;2.65;0.52;;;23.50;50.00;;;;;;2342454;55;21934;-74
2022/06/10 09:55:03;;;;;;;2.90;0.62;;;23.70;49.70;;;;;;2321212;54;21094;-73
2022/06/10 09:57:48;;;;;;;1.95;0.62;;;23.70;49.60;;;;;;2342432;55;21003;-74
2022/06/10 10:00:26;;;;;;;2.22;0.73;;;23.70;49.40;;;;;;2341585;55;20947;-74
2022/06/10 10:03:37;;;;;;;3.75;0.65;;;23.80;49.60;;;;;;2379831;53;21468;-74
2022/06/10 10:07:10;;;;;;;3.08;0.80;;;23.80;49.00;;;;;;2386343;53;20947;-74
2022/06/10 10:09:57;;;;;;;2.08;0.60;;;23.90;49.00;;;;;;2342429;55;21066;-76
2022/06/10 10:15:08;;;;;;;2.33;0.60;;;24.00;49.10;;;;;;2342239;55;21087;-72
2022/06/10 10:20:31;;;;;;;2.20;0.52;;;24.10;49.20;;;;;;2341788;55;21143;-74
2022/06/10 10:23:13;;;;;;;4.45;0.60;;;24.20;48.90;;;;;;2322634;54;21091;-75
2022/06/10 10:25:40;;;;;;;2.73;0.60;;;24.20;48.60;;;;;;2588999;53;23195;-74
2022/06/10 10:28:20;;;;;;;2.62;0.70;;;24.30;49.10;;;;;;2336905;54;21046;-74
2022/06/10 10:31:08;;;;;;;2.00;0.57;;;24.30;48.50;;;;;;2366554;54;20955;-75
2022/06/10 10:33:34;;;;;;;2.35;0.70;;;24.40;48.00;;;;;;2342117;54;21007;-74
2022/06/10 10:36:00;;;;;;;2.42;0.52;;;24.40;48.40;;;;;;2428102;53;21323;-74
2022/06/10 10:38:38;;;;;;;1.05;0.55;;;24.50;48.20;;;;;;2375304;53;21050;-74
2022/06/10 10:41:18;;;;;;;1.55;0.60;;;24.60;47.70;;;;;;2326457;54;21015;-73
2022/06/10 10:43:45;;;;;;;2.87;0.65;;;24.60;47.30;;;;;;2341458;54;21455;-74
2022/06/10 10:53:02;;;;;;;4.87;0.70;;;24.60;47.80;;;;;;2334480;53;21608;-73
2022/06/10 10:55:36;;;;;;;0.93;0.43;;;24.90;48.10;;;;;;2341541;55;21003;-73
2022/06/10 10:58:21;;;;;;;4.55;0.88;;;24.90;46.90;;;;;;2588600;53;21512;-74
2022/06/10 11:01:58;;;;;;;2.20;0.55;;;24.90;46.10;;;;;;2342739;55;21025;-74
2022/06/10 11:04:33;;;;;;;1.95;0.45;;;25.00;46.20;;;;;;2342393;55;20940;-74
2022/06/10 11:07:18;;;;;;;3.05;0.52;;;25.00;46.50;;;;;;2537824;53;21931;-73
2022/06/10 11:09:56;;;;;;;3.42;0.80;;;25.10;45.80;;;;;;2339003;55;21578;-74
2022/06/10 11:12:25;;;;;;;1.92;0.50;;;25.10;46.40;;;;;;2324635;54;21071;-72
2022/06/10 11:15:00;;;;;;;3.55;0.70;;;25.20;46.20;;;;;;2322332;54;21444;-74
2022/06/10 11:17:26;;;;;;;2.90;0.60;;;25.20;45.80;;;;;;2380855;53;20975;-73
2022/06/10 11:21:06;;;;;;;4.78;0.60;;;25.30;46.10;;;;;;2342294;55;21039;-73
2022/06/10 11:23:33;;;;;;;2.80;0.60;;;25.30;45.40;;;;;;2332701;54;21021;-74
2022/06/10 11:26:48;;;;;;;1.45;0.40;;;25.40;45.90;;;;;;2330994;54;20932;-74
2022/06/10 11:29:24;;;;;;;2.17;0.57;;;25.50;45.30;;;;;;2342032;55;20979;-74
2022/06/10 11:31:59;;;;;;;2.37;0.52;;;25.50;45.00;;;;;;2328239;54;21388;-74
2022/06/10 11:34:38;;;;;;;2.08;0.62;;;25.60;45.00;;;;;;2335238;54;20995;-74
2022/06/10 11:37:31;;;;;;;1.85;0.50;;;25.60;44.50;;;;;;2342192;55;21379;-74
2022/06/10 11:40:08;;;;;;;1.75;0.60;;;25.70;44.30;;;;;;2344786;55;21480;-74
2022/06/10 11:46:14;;;;;;;2.83;0.60;;;25.70;44.80;;;;;;2341694;55;21079;-74
2022/06/10 11:55:29;;;;;;;1.25;0.40;;;25.80;44.90;;;;;;2331336;54;20970;-73
2022/06/10 12:01:29;;;;;;;;;;;26.10;44.50;;;;;;2342799;55;21043;-74
2022/06/10 12:04:13;;;;;;;2.17;0.60;;;26.20;44.80;;;;;;2340994;55;20075;-73
2022/06/10 12:06:46;;;;;;;2.50;0.68;;;26.20;44.00;;;;;;2345643;55;20964;-74
2022/06/10 12:09:34;;;;;;;1.27;0.30;;;26.20;44.40;;;;;;2342032;55;20947;-74
2022/06/10 12:12:46;;;;;;;1.27;0.50;;;26.30;44.00;;;;;;2342216;55;22039;-73
2022/06/10 12:15:17;;;;;;;2.75;0.57;;;26.30;43.90;;;;;;2429972;53;21539;-74
2022/06/10 12:17:43;;;;;;;2.65;0.60;;;26.30;43.70;;;;;;2325495;54;21286;-72
2022/06/10 12:21:40;;;;;;;3.95;0.65;;;26.40;43.60;;;;;;2342165;55;20931;-72
2022/06/10 12:24:16;;;;;;;1.95;0.50;;;26.40;43.10;;;;;;2323787;54;20951;-73
2022/06/10 12:27:06;;;;;;;1.90;0.60;;;26.50;43.20;;;;;;2373526;53;20955;-72
2022/06/10 12:29:50;;;;;;;1.55;0.65;;;26.50;42.90;;;;;;2341843;55;20935;-73
2022/06/10 12:39:11;;;;;;;1.65;0.70;;;26.60;42.40;;;;;;2342225;55;21083;-73
2022/06/10 12:41:42;;;;;;;1.08;0.47;;;26.70;42.90;;;;;;2342249;55;21039;-73
2022/06/10 12:44:13;;;;;;;2.30;0.63;;;26.80;42.80;;;;;;2328867;54;21023;-74
2022/06/10 12:46:53;;;;;;;1.20;0.40;;;26.90;42.70;;;;;;2335563;54;20931;-74
2022/06/10 12:50:58;;;;;;;1.65;0.45;;;26.90;42.40;;;;;;2380751;53;21475;-73
2022/06/10 12:54:34;;;;;;;2.42;0.40;;;26.90;42.20;;;;;;2342014;55;20931;-73
2022/06/10 12:57:23;;;;;;;1.70;0.47;;;27.00;41.80;;;;;;2342201;55;21590;-77
2022/06/10 12:59:50;;;;;;;1.92;0.60;;;27.00;41.60;;;;;;2341836;55;21052;-72
2022/06/10 13:09:38;;;;;;;2.95;0.47;;;27.00;42.10;;;;;;2560116;53;21044;-73
2022/06/10 13:12:48;;;;;;;11.43;2.47;;;27.20;42.00;;;;;;2341860;55;21074;-73
2022/06/10 13:15:24;;;;;;;3.65;0.80;;;27.30;41.50;;;;;;2341937;54;20931;-72
2022/06/10 13:17:55;;;;;;;1.30;0.45;;;27.30;41.80;;;;;;2436658;53;21479;-73
2022/06/10 13:20:22;;;;;;;2.72;0.68;;;27.30;41.80;;;;;;2334542;54;21385;-73
2022/06/10 13:23:09;;;;;;;2.55;0.60;;;27.30;41.50;;;;;;2341892;55;21448;-73
2022/06/10 13:25:35;;;;;;;1.87;0.50;;;27.40;40.70;;;;;;2342084;55;21003;-72
2022/06/10 13:28:02;;;;;;;1.52;0.60;;;27.40;41.20;;;;;;2342163;55;21058;-72
2022/06/10 13:30:30;;;;;;;1.95;0.50;;;27.50;41.20;;;;;;2341735;55;21008;-72
2022/06/10 13:33:07;;;;;;;1.65;0.50;;;27.60;41.20;;;;;;2342338;55;20966;-73
2022/06/10 13:35:53;;;;;;;0.90;0.40;;;27.60;40.40;;;;;;2340406;55;21449;-72
2022/06/10 13:38:27;;;;;;;1.85;0.47;;;27.70;40.40;;;;;;2322399;55;21547;-73
2022/06/10 13:43:50;;;;;;;17.08;3.12;;;27.80;39.90;;;;;;2342082;55;21030;-72
2022/06/10 13:46:24;;;;;;;2.12;0.70;;;27.90;40.20;;;;;;2342430;55;20939;-74
2022/06/10 13:49:12;;;;;;;2.83;0.60;;;28.00;39.70;;;;;;2342222;55;20995;-72
2022/06/10 13:51:42;;;;;;;3.33;0.75;;;28.00;39.30;;;;;;2333002;54;20983;-72
2022/06/10 13:54:22;;;;;;;2.85;0.50;;;28.00;39.80;;;;;;2330493;54;21409;-73
2022/06/10 13:56:49;;;;;;;1.48;0.45;;;28.10;39.00;;;;;;2340453;55;20955;-72
2022/06/10 13:59:58;;;;;;;2.30;0.60;;;28.10;39.70;;;;;;2339426;54;21011;-72
2022/06/10 14:02:29;;;;;;;2.55;0.57;;;28.20;39.10;;;;;;2334315;54;20965;-72
2022/06/10 14:04:57;;;;;;;4.27;0.70;;;28.30;39.40;;;;;;2342308;55;21039;-71
2022/06/10 14:07:25;;;;;;;2.42;0.70;;;28.30;39.20;;;;;;2322332;54;21579;-72
2022/06/10 14:09:52;;;;;;;2.78;0.60;;;28.30;38.90;;;;;;2342531;53;21788;-73
2022/06/10 14:12:25;;;;;;;1.90;0.57;;;28.40;39.00;;;;;;2341808;54;21079;-72
2022/06/10 14:15:04;;;;;;;2.00;0.50;;;28.50;38.60;;;;;;2342264;55;20936;-72
2022/06/10 14:17:30;;;;;;;2.70;0.60;;;28.50;38.30;;;;;;2342461;55;20935;-73
2022/06/10 14:19:59;;;;;;;2.58;0.60;;;28.50;38.60;;;;;;2342128;55;20988;-73
2022/06/10 14:22:31;;;;;;;1.98;0.50;;;28.60;38.50;;;;;;2486034;53;21294;-73
2022/06/10 14:28:29;;;;;;;1.62;0.52;;;28.60;38.20;;;;;;2330844;54;20951;-73
2022/06/10 14:31:00;;;;;;;1.50;0.37;;;28.70;38.70;;;;;;2342567;55;21461;-73
2022/06/10 14:33:31;;;;;;;2.08;0.65;;;28.80;38.50;;;;;;2343367;53;20927;-72
2022/06/10 14:38:35;;;;;;;2.12;0.40;;;28.80;38.40;;;;;;2342863;55;20939;-72
2022/06/10 14:41:23;;;;;;;1.33;0.37;;;28.90;38.30;;;;;;2342479;55;21012;-72
2022/06/10 14:44:19;;;;;;;0.98;0.45;;;28.90;37.70;;;;;;2588444;53;21459;-73
2022/06/10 14:47:39;;;;;;;2.25;0.50;;;28.90;37.40;;;;;;2341813;55;21672;-71
2022/06/10 14:50:14;;;;;;;1.50;0.43;;;29.00;37.10;;;;;;2342114;54;20996;-71
2022/06/10 14:52:43;;;;;;;2.28;0.55;;;29.00;37.30;;;;;;2322154;55;20916;-69
2022/06/10 14:55:23;;;;;;;2.78;0.82;;;28.90;37.30;;;;;;2324500;54;20935;-68
2022/06/10 14:57:53;;;;;;;1.73;0.37;;;29.00;36.80;;;;;;2342197;55;20979;-69
2022/06/10 15:00:23;;;;;;;1.33;0.47;;;28.90;37.00;;;;;;2344949;55;20935;-68